Time;durP1;ratioP1;P1;durP2;ratioP2;P2;SDS_P1;SDS_P2;PMS_P1;PMS_P2;Temp;Humidity;BMP_temperature;BMP_pressure;BME280_temperature;BME280_humidity;BME280_pressure;Samples;Min_cycle;Max_cycle;Signal;HPM_P1;HPM_P2
2021/09/14 00:01:23;;;;;;;;;;;;;;;16.82;72.43;99842.72;5034904;28;19929;-64
2021/09/14 00:04:07;;;;;;;;;;;;;;;16.82;72.71;99831.41;5035360;28;19928;-63
2021/09/14 00:06:58;;;;;;;;;;;;;;;16.81;72.38;99846.25;5035597;28;19928;-64
2021/09/14 00:09:42;;;;;;;;;;;;;;;16.80;72.26;99847.16;5035638;28;19928;-64
2021/09/14 00:12:29;;;;;;;;;;;;;;;16.78;72.11;99843.69;5036306;28;19928;-64
2021/09/14 00:15:13;;;;;;;;;;;;;;;16.78;72.29;99834.94;5035044;28;19928;-64
2021/09/14 00:18:03;;;;;;;;;;;;;;;16.79;72.31;99831.44;5035675;28;19943;-63
2021/09/14 00:20:47;;;;;;;;;;;;;;;16.76;72.27;99832.38;5035814;28;20430;-63
2021/09/14 00:23:34;;;;;;;;;;;;;;;16.77;72.36;99835.84;5035701;28;19944;-64
2021/09/14 00:26:18;;;;;;;;;;;;;;;16.77;72.07;99825.34;5035963;28;19967;-63
2021/09/14 00:29:02;;;;;;;;;;;;;;;16.76;72.18;99829.75;5034687;28;19975;-64
2021/09/14 00:31:54;;;;;;;;;;;;;;;16.75;72.30;99830.63;5034945;28;19975;-64
2021/09/14 00:34:41;;;;;;;;;;;;;;;16.75;72.35;99836.72;5034812;28;19928;-63
2021/09/14 00:37:28;;;;;;;;;;;;;;;16.75;72.08;99830.63;5035252;28;20006;-64
2021/09/14 00:40:18;;;;;;;;;;;;;;;16.74;72.33;99836.75;5035078;28;20354;-64
2021/09/14 00:43:02;;;;;;;;;;;;;;;16.73;72.28;99828.03;5034468;28;19944;-63
2021/09/14 00:45:52;;;;;;;;;;;;;;;16.73;72.23;99820.19;5034073;28;20453;-64
2021/09/14 00:48:36;;;;;;;;;;;;;;;16.73;72.05;99816.69;5033927;28;19971;-64
2021/09/14 00:51:20;;;;;;;;;;;;;;;16.73;72.27;99820.19;5035490;28;19967;-64
2021/09/14 00:54:08;;;;;;;;;;;;;;;16.74;72.15;99821.03;5035223;28;19932;-64
2021/09/14 00:56:52;;;;;;;;;;;;;;;16.72;72.39;99817.56;5034082;28;20018;-64
2021/09/14 00:59:39;;;;;;;;;;;;;;;16.72;72.24;99817.56;5034994;28;19928;-64
2021/09/14 01:02:29;;;;;;;;;;;;;;;16.71;72.18;99819.34;5034804;28;19928;-64
2021/09/14 01:05:19;;;;;;;;;;;;;;;16.72;72.33;99815.84;5033392;28;19928;-64
2021/09/14 01:08:08;;;;;;;;;;;;;;;16.70;72.41;99815.00;5033539;28;19928;-64
2021/09/14 01:10:53;;;;;;;;;;;;;;;16.70;72.08;99803.66;5033801;28;20459;-64
2021/09/14 01:13:37;;;;;;;;;;;;;;;16.68;72.36;99815.88;5034471;28;20067;-64
2021/09/14 01:16:21;;;;;;;;;;;;;;;16.68;72.21;99810.66;5034710;28;20063;-63
2021/09/14 01:19:13;;;;;;;;;;;;;;;16.68;72.21;99805.41;5034430;28;20020;-64
2021/09/14 01:21:57;;;;;;;;;;;;;;;16.67;72.23;99812.41;5033684;28;19928;-64
2021/09/14 01:24:44;;;;;;;;;;;;;;;16.66;72.28;99805.44;5033948;28;19928;-64
2021/09/14 01:27:31;;;;;;;;;;;;;;;16.66;72.46;99808.06;5033678;28;20351;-64
2021/09/14 01:30:22;;;;;;;;;;;;;;;16.64;72.23;99809.81;5033555;28;19943;-64
2021/09/14 01:33:15;;;;;;;;;;;;;;;16.64;72.28;99804.59;5033793;28;19928;-64
2021/09/14 01:36:05;;;;;;;;;;;;;;;16.65;72.28;99800.25;5033537;28;20008;-64
2021/09/14 01:38:52;;;;;;;;;;;;;;;16.63;72.33;99797.63;5033226;28;19983;-64
2021/09/14 01:41:36;;;;;;;;;;;;;;;16.63;72.21;99794.16;5034081;28;19928;-64
2021/09/14 01:44:28;;;;;;;;;;;;;;;16.62;72.19;99798.50;5034103;28;19927;-63
2021/09/14 01:47:18;;;;;;;;;;;;;;;16.62;72.22;99789.81;5033495;28;20059;-64
2021/09/14 01:50:07;;;;;;;;;;;;;;;16.62;72.34;99787.19;5033296;28;20412;-64
2021/09/14 01:52:51;;;;;;;;;;;;;;;16.59;72.29;99782.84;5032995;28;20316;-63
2021/09/14 01:55:38;;;;;;;;;;;;;;;16.58;72.05;99791.63;5034448;28;19928;-64
2021/09/14 01:58:25;;;;;;;;;;;;;;;16.57;71.98;99782.88;5034116;28;20289;-64
2021/09/14 02:01:18;;;;;;;;;;;;;;;16.58;72.23;99786.38;5032752;28;19971;-63
2021/09/14 03:01:18;;;;;;;;;;;;;;;16.46;72.07;99723.75;5033225;28;19927;-64
2021/09/14 03:04:05;;;;;;;;;;;;;;;16.46;72.21;99729.84;5032424;28;20346;-64
2021/09/14 03:06:49;;;;;;;;;;;;;;;16.45;72.04;99733.34;5032606;28;19999;-63
2021/09/14 03:09:41;;;;;;;;;;;;;;;16.46;71.94;99732.47;5033774;28;19928;-63
2021/09/14 03:12:28;;;;;;;;;;;;;;;16.46;72.15;99740.31;5033328;28;20352;-64
2021/09/14 03:15:12;;;;;;;;;;;;;;;16.46;72.11;99740.31;5032673;28;19928;-64
2021/09/14 03:17:59;;;;;;;;;;;;;;;16.47;71.94;99754.25;5033547;28;20414;-63
2021/09/14 03:20:43;;;;;;;;;;;;;;;16.47;71.99;99741.16;5032681;28;19971;-63
2021/09/14 03:23:33;;;;;;;;;;;;;;;16.45;71.80;99741.19;5033115;28;20034;-64
2021/09/14 03:26:19;;;;;;;;;;;;;;;16.44;71.90;99745.53;5032227;28;19963;-64
2021/09/14 03:29:12;;;;;;;;;;;;;;;16.44;72.15;99735.09;5047912;28;19971;-64
2021/09/14 03:31:56;;;;;;;;;;;;;;;16.43;72.17;99733.34;5037105;28;19928;-64
2021/09/14 03:34:40;;;;;;;;;;;;;;;16.43;72.25;99735.97;5036868;28;20062;-63
2021/09/14 03:37:26;;;;;;;;;;;;;;;16.42;72.20;99721.19;5036350;28;19975;-64
2021/09/14 03:40:13;;;;;;;;;;;;;;;16.41;72.14;99729.91;5036016;28;19928;-64
2021/09/14 03:43:03;;;;;;;;;;;;;;;16.41;71.97;99726.41;5050487;28;19972;-64
2021/09/14 03:45:51;;;;;;;;;;;;;;;16.41;72.08;99732.53;5049538;28;20356;-64
2021/09/14 03:48:40;;;;;;;;;;;;;;;16.42;72.03;99728.16;5035091;28;19971;-64
2021/09/14 03:51:29;;;;;;;;;;;;;;;16.41;72.18;99735.16;5036510;28;20383;-63
2021/09/14 03:54:22;;;;;;;;;;;;;;;16.41;72.22;99729.03;5035478;28;19928;-64
2021/09/14 03:57:06;;;;;;;;;;;;;;;16.41;72.13;99732.53;5035390;28;19928;-64
2021/09/14 03:59:50;;;;;;;;;;;;;;;16.41;72.13;99732.53;5035667;28;19927;-63
2021/09/14 04:02:44;;;;;;;;;;;;;;;16.40;72.08;99733.41;5035055;28;20015;-64
2021/09/14 04:11:08;;;;;;;;;;;;;;;16.39;72.18;99723.84;5036404;28;20003;-63
2021/09/14 04:13:52;;;;;;;;;;;;;;;16.40;72.01;99727.31;5035594;28;20399;-62
2021/09/14 04:16:42;;;;;;;;;;;;;;;16.39;71.96;99718.59;5036146;28;19972;-62
2021/09/14 04:19:29;;;;;;;;;;;;;;;16.38;71.99;99714.25;5034934;28;19928;-62
2021/09/14 04:22:16;;;;;;;;;;;;;;;16.37;72.03;99706.41;5035090;28;20390;-63
2021/09/14 04:25:00;;;;;;;;;;;;;;;16.37;72.00;99690.72;5035445;28;19975;-63
2021/09/14 04:27:49;;;;;;;;;;;;;;;16.37;72.03;99696.84;5035283;28;19928;-62
2021/09/14 04:30:39;;;;;;;;;;;;;;;16.38;72.13;99702.91;5034586;28;19928;-62
2021/09/14 04:33:26;;;;;;;;;;;;;;;16.37;72.22;99703.81;5034709;28;20008;-63
2021/09/14 04:36:16;;;;;;;;;;;;;;;16.37;72.11;99709.91;5034331;28;19967;-62
2021/09/14 04:39:08;;;;;;;;;;;;;;;16.37;71.93;99707.28;5034747;28;20020;-62
2021/09/14 04:41:53;;;;;;;;;;;;;;;16.38;72.03;99703.81;5034666;28;19927;-63
2021/09/14 04:44:42;;;;;;;;;;;;;;;16.37;71.95;99701.19;5034986;28;19928;-62
2021/09/14 04:47:31;;;;;;;;;;;;;;;16.35;71.92;99698.59;5033907;28;19932;-62
2021/09/14 04:50:16;;;;;;;;;;;;;;;16.35;72.08;99709.06;5034276;28;20303;-62
2021/09/14 04:53:08;;;;;;;;;;;;;;;16.35;72.08;99708.22;5035250;28;19928;-62
2021/09/14 04:55:55;;;;;;;;;;;;;;;16.33;72.15;99705.59;5034146;28;20059;-63
2021/09/14 04:58:43;;;;;;;;;;;;;;;16.34;72.17;99702.09;5033976;28;19952;-62
2021/09/14 05:01:38;;;;;;;;;;;;;;;16.34;72.12;99694.25;5033705;28;20407;-62
2021/09/14 05:04:27;;;;;;;;;;;;;;;16.33;72.08;99684.69;5034511;28;19967;-63
2021/09/14 05:07:17;;;;;;;;;;;;;;;16.33;72.22;99679.44;5034028;28;20292;-62
2021/09/14 05:10:10;;;;;;;;;;;;;;;16.35;72.19;99680.28;5034331;28;19928;-62
2021/09/14 05:12:57;;;;;;;;;;;;;;;16.33;72.19;99669.00;5034759;28;19975;-62
2021/09/14 05:15:46;;;;;;;;;;;;;;;16.33;72.12;99665.53;5034880;28;19959;-62
2021/09/14 05:18:30;;;;;;;;;;;;;;;16.33;72.06;99670.75;5033288;28;19928;-62
2021/09/14 05:21:23;;;;;;;;;;;;;;;16.34;72.01;99675.09;5034505;28;20423;-64
2021/09/14 05:24:13;;;;;;;;;;;;;;;16.33;71.98;99676.00;5034827;28;19975;-63
2021/09/14 05:27:03;;;;;;;;;;;;;;;16.33;72.04;99679.44;5033832;28;19927;-64
2021/09/14 05:29:55;;;;;;;;;;;;;;;16.33;72.08;99682.06;5034553;28;19928;-64
2021/09/14 05:32:42;;;;;;;;;;;;;;;16.33;72.26;99686.44;5033905;28;19944;-64
2021/09/14 05:35:33;;;;;;;;;;;;;;;16.31;71.97;99685.59;5034135;28;19974;-63
2021/09/14 05:38:21;;;;;;;;;;;;;;;16.30;72.14;99684.72;5033994;28;19928;-64
2021/09/14 05:41:05;;;;;;;;;;;;;;;16.29;72.11;99683.88;5033248;28;19971;-63
2021/09/14 05:43:49;;;;;;;;;;;;;;;16.29;72.04;99686.47;5034421;28;19928;-62
2021/09/14 05:46:38;;;;;;;;;;;;;;;16.31;72.05;99690.81;5033450;28;20384;-62
2021/09/14 05:49:28;;;;;;;;;;;;;;;16.31;72.21;99696.91;5033273;28;19927;-62
2021/09/14 05:52:17;;;;;;;;;;;;;;;16.31;72.08;99696.91;5032867;28;19928;-62
2021/09/14 05:55:10;;;;;;;;;;;;;;;16.31;72.05;99703.91;5033319;28;19963;-62
2021/09/14 05:58:00;;;;;;;;;;;;;;;16.31;72.21;99698.66;5033548;28;19943;-62
2021/09/14 06:00:50;;;;;;;;;;;;;;;16.31;72.05;99706.50;5033742;28;20327;-62
2021/09/14 06:03:36;;;;;;;;;;;;;;;16.31;72.14;99703.91;5032984;28;19991;-63
2021/09/14 06:06:20;;;;;;;;;;;;;;;16.29;72.32;99696.94;5032857;28;20303;-62
2021/09/14 06:09:13;;;;;;;;;;;;;;;16.29;72.15;99691.72;5033884;28;19927;-63
2021/09/14 06:12:06;;;;;;;;;;;;;;;16.31;72.09;99693.44;5033919;28;20400;-62
2021/09/14 06:14:58;;;;;;;;;;;;;;;16.32;72.13;99687.31;5033851;28;20012;-62
2021/09/14 06:17:51;;;;;;;;;;;;;;;16.29;72.25;99673.41;5032985;28;19928;-62
2021/09/14 06:20:46;;;;;;;;;;;;;;;16.32;72.23;99672.50;5033908;28;20024;-62
2021/09/14 06:23:39;;;;;;;;;;;;;;;16.31;72.39;99670.75;5033770;28;19932;-62
2021/09/14 06:26:26;;;;;;;;;;;;;;;16.32;72.32;99674.25;5032837;28;19928;-63
2021/09/14 06:29:10;;;;;;;;;;;;;;;16.33;72.23;99674.22;5032801;28;20403;-62
2021/09/14 06:32:01;;;;;;;;;;;;;;;16.33;72.26;99674.22;5032567;28;20415;-62
2021/09/14 06:34:53;;;;;;;;;;;;;;;16.34;72.35;99664.63;5033188;28;19929;-62
2021/09/14 06:37:43;;;;;;;;;;;;;;;16.35;72.38;99676.84;5032667;28;19957;-62
2021/09/14 06:40:32;;;;;;;;;;;;;;;16.36;72.34;99684.66;5032554;28;20087;-62
2021/09/14 06:43:25;;;;;;;;;;;;;;;16.36;72.47;99681.16;5032307;28;19929;-62
2021/09/14 06:46:09;;;;;;;;;;;;;;;16.36;72.40;99676.81;5032508;28;19983;-62
2021/09/14 06:49:02;;;;;;;;;;;;;;;16.37;72.40;99686.38;5033537;28;19944;-62
2021/09/14 06:51:52;;;;;;;;;;;;;;;16.37;72.40;99690.72;5033112;28;19927;-64
2021/09/14 06:54:36;;;;;;;;;;;;;;;16.38;72.37;99701.19;5032829;28;19948;-62
2021/09/14 06:57:20;;;;;;;;;;;;;;;16.40;72.45;99698.53;5033734;28;19979;-62
2021/09/14 07:00:04;;;;;;;;;;;;;;;16.42;72.53;99699.38;5033193;28;19928;-62
2021/09/14 07:02:59;;;;;;;;;;;;;;;16.42;72.49;99692.41;5035161;28;19927;-62
2021/09/14 07:05:52;;;;;;;;;;;;;;;16.44;72.30;99689.78;5036179;28;20036;-63
2021/09/14 07:08:41;;;;;;;;;;;;;;;16.46;72.55;99685.38;5036314;28;19927;-63
2021/09/14 07:11:36;;;;;;;;;;;;;;;16.47;72.60;99681.88;5036245;28;19951;-62
2021/09/14 07:14:23;;;;;;;;;;;;;;;16.49;72.48;99679.25;5036342;28;19996;-64
2021/09/14 07:17:18;;;;;;;;;;;;;;;16.51;72.56;99685.31;5037003;28;20300;-62
2021/09/14 07:20:10;;;;;;;;;;;;;;;16.52;72.62;99687.91;5036371;28;20431;-62
2021/09/14 07:22:54;;;;;;;;;;;;;;;16.54;72.56;99691.34;5035717;28;20411;-62
2021/09/14 07:25:41;;;;;;;;;;;;;;;16.55;72.69;99690.47;5037056;28;19967;-62
2021/09/14 07:28:33;;;;;;;;;;;;;;;16.55;72.43;99695.72;5036314;28;19928;-62
2021/09/14 07:31:29;;;;;;;;;;;;;;;16.56;72.71;99709.66;5036118;28;20410;-64
2021/09/14 07:34:16;;;;;;;;;;;;;;;16.58;72.47;99715.75;5035700;28;20019;-63
2021/09/14 07:37:09;;;;;;;;;;;;;;;16.57;72.53;99708.78;5035893;28;20281;-64
2021/09/14 07:40:01;;;;;;;;;;;;;;;16.59;72.57;99714.84;5035689;28;19936;-64
2021/09/14 07:42:45;;;;;;;;;;;;;;;16.59;72.67;99709.59;5035659;28;19944;-64
2021/09/14 07:45:29;;;;;;;;;;;;;;;16.60;72.49;99703.47;5035426;28;20399;-64
2021/09/14 07:48:13;;;;;;;;;;;;;;;16.61;72.65;99701.75;5036347;28;19928;-64
2021/09/14 07:50:56;;;;;;;;;;;;;;;16.62;72.69;99708.72;5035106;28;20015;-63
2021/09/14 07:53:48;;;;;;;;;;;;;;;16.62;72.69;99701.72;5035501;28;19928;-63
2021/09/14 07:56:40;;;;;;;;;;;;;;;16.63;72.53;99695.59;5035649;28;19929;-64
2021/09/14 07:59:30;;;;;;;;;;;;;;;16.64;72.47;99692.09;5035194;28;19928;-64
2021/09/14 08:02:23;;;;;;;;;;;;;;;16.66;72.53;99697.31;5035454;28;20403;-63
2021/09/14 08:05:15;;;;;;;;;;;;;;;16.66;72.81;99697.31;5034943;28;19928;-64
2021/09/14 08:08:02;;;;;;;;;;;;;;;16.68;72.74;99696.41;5034947;28;19967;-64
2021/09/14 08:10:46;;;;;;;;;;;;;;;16.70;72.60;99702.50;5035161;28;19952;-64
2021/09/14 08:13:38;;;;;;;;;;;;;;;16.72;72.50;99698.09;5036183;28;19975;-64
2021/09/14 08:16:22;;;;;;;;;;;;;;;16.73;72.68;99699.81;5035634;28;20387;-63
2021/09/14 08:19:06;;;;;;;;;;;;;;;16.73;72.72;99704.19;5035345;28;20438;-64
2021/09/14 08:21:58;;;;;;;;;;;;;;;16.75;72.57;99684.94;5035551;28;19928;-64
2021/09/14 08:24:50;;;;;;;;;;;;;;;16.78;72.53;99681.44;5035489;28;19928;-63
2021/09/14 08:27:37;;;;;;;;;;;;;;;16.79;72.76;99683.16;5034764;28;19928;-64
2021/09/14 08:30:30;;;;;;;;;;;;;;;16.82;72.63;99679.63;5035058;28;19974;-64
2021/09/14 08:33:22;;;;;;;;;;;;;;;16.86;72.59;99678.69;5035296;28;19928;-64
2021/09/14 08:36:12;;;;;;;;;;;;;;;16.89;72.70;99678.66;5034455;28;19971;-64
2021/09/14 08:39:01;;;;;;;;;;;;;;;16.92;72.57;99688.22;5035066;28;19928;-64
2021/09/14 08:41:50;;;;;;;;;;;;;;;16.94;72.32;99678.56;5034732;28;19944;-64
2021/09/14 08:44:38;;;;;;;;;;;;;;;16.96;72.52;99676.84;5034597;28;19928;-64
2021/09/14 08:47:31;;;;;;;;;;;;;;;16.98;72.73;99682.88;5034399;28;20016;-64
2021/09/14 08:50:23;;;;;;;;;;;;;;;17.00;72.58;99692.47;5035108;28;20382;-64
2021/09/14 08:53:15;;;;;;;;;;;;;;;17.02;72.59;99695.03;5034350;28;19929;-64
2021/09/14 08:56:08;;;;;;;;;;;;;;;17.03;72.34;99702.91;5035045;28;19928;-64
2021/09/14 08:58:59;;;;;;;;;;;;;;;17.07;72.28;99708.94;5034480;28;20016;-64
2021/09/14 09:01:57;;;;;;;;;;;;;;;17.10;72.32;99715.88;5034022;28;19928;-64
2021/09/14 09:05:02;;;;;;;;;;;;;;;17.12;72.29;99716.72;5034404;28;19927;-62
2021/09/14 09:07:51;;;;;;;;;;;;;;;17.15;72.38;99712.28;5033535;28;20415;-62
2021/09/14 09:10:35;;;;;;;;;;;;;;;17.19;72.33;99718.34;5033837;28;20375;-63
2021/09/14 09:13:19;;;;;;;;;;;;;;;17.22;72.31;99709.56;5034312;28;19928;-62
2021/09/14 09:16:08;;;;;;;;;;;;;;;17.25;72.28;99709.53;5033699;28;19927;-62
2021/09/14 09:18:58;;;;;;;;;;;;;;;17.28;72.26;99712.94;5034163;28;19928;-63
2021/09/14 09:21:48;;;;;;;;;;;;;;;17.31;72.21;99707.66;5034198;28;19928;-63
2021/09/14 09:24:42;;;;;;;;;;;;;;;17.34;72.08;99707.63;5034778;28;19929;-62
2021/09/14 09:27:31;;;;;;;;;;;;;;;17.38;72.18;99707.53;5034201;28;19964;-62
2021/09/14 09:30:18;;;;;;;;;;;;;;;17.41;72.08;99704.88;5033872;28;20020;-62
2021/09/14 09:33:04;;;;;;;;;;;;;;;17.44;72.04;99702.19;5034914;28;19983;-63
2021/09/14 09:35:57;;;;;;;;;;;;;;;17.46;72.02;99701.28;5033357;28;19971;-62
2021/09/14 09:38:48;;;;;;;;;;;;;;;17.48;71.99;99699.50;5034010;28;20071;-62
2021/09/14 09:41:34;;;;;;;;;;;;;;;17.51;71.89;99714.31;5033295;28;20300;-64
2021/09/14 09:44:23;;;;;;;;;;;;;;;17.52;72.01;99705.53;5034661;28;19928;-62
2021/09/14 09:47:15;;;;;;;;;;;;;;;17.54;72.12;99708.16;5033369;28;19927;-63
2021/09/14 09:50:02;;;;;;;;;;;;;;;17.56;72.03;99703.75;5033352;28;19929;-62
2021/09/14 09:52:54;;;;;;;;;;;;;;;17.58;71.97;99710.69;5033333;28;19928;-62
2021/09/14 09:55:42;;;;;;;;;;;;;;;17.61;71.93;99708.00;5033874;28;19964;-63
2021/09/14 09:58:31;;;;;;;;;;;;;;;17.63;72.03;99705.34;5034038;28;19932;-63
2021/09/14 10:01:19;;;;;;;;;;;;;;;17.63;72.06;99703.59;5033023;28;19948;-62
2021/09/14 10:04:19;;;;;;;;;;;;;;;17.65;72.07;99714.94;5033088;28;19928;-63
2021/09/14 10:07:04;;;;;;;;;;;;;;;17.67;72.03;99720.13;5032858;28;19928;-63
2021/09/14 10:09:52;;;;;;;;;;;;;;;17.69;71.98;99709.59;5033401;28;20342;-62
2021/09/14 10:12:36;;;;;;;;;;;;;;;17.69;72.19;99707.88;5032910;28;19927;-62
2021/09/14 10:15:20;;;;;;;;;;;;;;;17.71;72.06;99706.09;5034253;28;19932;-62
2021/09/14 10:18:04;;;;;;;;;;;;;;;17.73;72.05;99709.53;5033779;28;20058;-62
2021/09/14 10:20:51;;;;;;;;;;;;;;;17.75;72.03;99709.50;5034181;28;19944;-62
2021/09/14 10:23:41;;;;;;;;;;;;;;;17.74;72.08;99711.28;5033433;28;20564;-62
2021/09/14 10:26:35;;;;;;;;;;;;;;;17.77;72.01;99705.09;5033247;28;20332;-63
2021/09/14 10:29:24;;;;;;;;;;;;;;;17.76;72.25;99706.84;5032669;28;19971;-62
2021/09/14 10:32:12;;;;;;;;;;;;;;;17.77;71.99;99692.84;5032739;28;19927;-62
2021/09/14 10:34:59;;;;;;;;;;;;;;;17.79;72.09;99698.94;5032595;28;19928;-62
2021/09/14 10:37:46;;;;;;;;;;;;;;;17.79;72.22;99688.44;5034394;28;19928;-62
2021/09/14 10:40:45;;;;;;;;;;;;;;;17.80;72.16;99690.16;5038078;28;20335;-62
2021/09/14 10:43:30;;;;;;;;;;;;;;;17.81;72.42;99691.91;5036912;28;20023;-62
2021/09/14 10:46:20;;;;;;;;;;;;;;;17.83;72.36;99691.84;5038010;28;19967;-62
2021/09/14 10:49:14;;;;;;;;;;;;;;;17.83;72.17;99698.88;5037490;28;19927;-64
2021/09/14 10:52:02;;;;;;;;;;;;;;;17.84;72.06;99693.59;5037560;28;19928;-62
2021/09/14 10:54:48;;;;;;;;;;;;;;;17.87;72.34;99692.69;5036928;28;19928;-62
2021/09/14 10:57:39;;;;;;;;;;;;;;;17.88;72.38;99697.88;5037703;28;20264;-62
2021/09/14 11:00:47;;;;;;;;;;;;;;;17.91;72.41;99695.22;5036555;28;19978;-62
2021/09/14 11:03:33;;;;;;;;;;;;;;;17.94;72.31;99694.28;5035883;28;19975;-62
2021/09/14 11:06:18;;;;;;;;;;;;;;;17.95;72.55;99689.03;5037362;28;20021;-62
2021/09/14 11:09:03;;;;;;;;;;;;;;;17.96;72.30;99693.38;5036436;28;20280;-62
2021/09/14 11:11:50;;;;;;;;;;;;;;;17.99;72.47;99695.09;5036360;28;20292;-62
2021/09/14 11:14:46;;;;;;;;;;;;;;;18.02;72.42;99688.91;5036333;28;19975;-62
2021/09/14 11:17:34;;;;;;;;;;;;;;;18.03;72.34;99686.28;5037411;28;19967;-63
2021/09/14 11:20:26;;;;;;;;;;;;;;;18.05;72.59;99687.13;5036759;28;19975;-63
2021/09/14 11:23:10;;;;;;;;;;;;;;;18.07;72.42;99690.53;5037240;28;19967;-62
2021/09/14 11:25:54;;;;;;;;;;;;;;;18.08;72.45;99684.41;5037044;28;19975;-62
2021/09/14 11:28:39;;;;;;;;;;;;;;;18.08;72.62;99678.31;5036982;28;20308;-62
2021/09/14 11:31:31;;;;;;;;;;;;;;;18.09;72.43;99680.03;5036138;28;19928;-62
2021/09/14 11:34:17;;;;;;;;;;;;;;;18.08;72.60;99684.41;5036746;28;19928;-62
2021/09/14 11:37:03;;;;;;;;;;;;;;;18.09;72.59;99677.41;5035617;28;19931;-62
2021/09/14 11:39:47;;;;;;;;;;;;;;;18.10;72.48;99679.16;5035571;28;20450;-62
2021/09/14 11:42:37;;;;;;;;;;;;;;;18.11;72.58;99678.25;5036406;28;20415;-62
2021/09/14 11:45:23;;;;;;;;;;;;;;;18.12;72.75;99685.22;5035106;28;20015;-62
2021/09/14 11:48:18;;;;;;;;;;;;;;;18.13;72.67;99686.94;5035419;28;19928;-62
2021/09/14 11:51:04;;;;;;;;;;;;;;;18.13;72.81;99681.72;5035026;28;20453;-62
2021/09/14 11:53:54;;;;;;;;;;;;;;;18.14;72.49;99679.94;5036045;28;19928;-62
2021/09/14 11:56:42;;;;;;;;;;;;;;;18.14;72.62;99683.41;5035297;28;19944;-63
2021/09/14 11:59:34;;;;;;;;;;;;;;;18.14;72.75;99672.06;5036757;28;20442;-64
2021/09/14 12:02:18;;;;;;;;;;;;;;;18.14;72.62;99665.06;5035147;28;19928;-64
2021/09/14 12:05:05;;;;;;;;;;;;;;;18.16;72.66;99659.78;5035275;28;20394;-63
2021/09/14 12:07:57;;;;;;;;;;;;;;;18.16;72.80;99644.91;5035030;28;20004;-63
2021/09/14 12:10:46;;;;;;;;;;;;;;;18.15;72.79;99637.94;5035468;28;19928;-64
2021/09/14 12:13:39;;;;;;;;;;;;;;;18.16;72.65;99646.69;5035116;28;19928;-64
2021/09/14 12:16:36;;;;;;;;;;;;;;;18.16;72.75;99659.78;5035357;28;19928;-64
2021/09/14 12:19:20;;;;;;;;;;;;;;;18.16;72.89;99658.03;5035055;28;19932;-64
2021/09/14 12:22:12;;;;;;;;;;;;;;;18.16;72.92;99658.03;5035137;28;19927;-64
2021/09/14 12:25:07;;;;;;;;;;;;;;;18.16;72.96;99660.63;5048482;28;19971;-64
2021/09/14 12:27:51;;;;;;;;;;;;;;;18.17;73.08;99659.75;5035085;28;19944;-62
2021/09/14 12:30:35;;;;;;;;;;;;;;;18.20;73.06;99658.84;5035829;28;20083;-62
2021/09/14 12:33:19;;;;;;;;;;;;;;;18.20;73.11;99638.69;5035274;28;19928;-63
2021/09/14 12:36:09;;;;;;;;;;;;;;;18.20;73.06;99632.63;5035722;28;19944;-63
2021/09/14 12:38:53;;;;;;;;;;;;;;;18.20;73.05;99633.47;5034492;28;19928;-63
2021/09/14 12:41:40;;;;;;;;;;;;;;;18.20;72.96;99648.34;5035120;28;19928;-63
2021/09/14 12:44:33;;;;;;;;;;;;;;;18.23;72.98;99643.88;5034290;28;20022;-64
2021/09/14 12:47:22;;;;;;;;;;;;;;;18.22;73.15;99638.66;5034425;28;19927;-64
2021/09/14 12:50:09;;;;;;;;;;;;;;;18.23;73.08;99638.66;5034379;28;20457;-64
2021/09/14 12:52:59;;;;;;;;;;;;;;;18.25;73.26;99630.72;5034147;28;20332;-64
2021/09/14 12:55:43;;;;;;;;;;;;;;;18.23;73.36;99636.03;5034722;28;19971;-62
2021/09/14 12:58:27;;;;;;;;;;;;;;;18.23;73.29;99625.53;5034310;28;19960;-65
2021/09/14 13:01:16;;;;;;;;;;;;;;;18.25;73.42;99620.25;5034324;28;19928;-63
2021/09/14 13:04:11;;;;;;;;;;;;;;;18.25;73.19;99621.13;5034447;28;19943;-62
2021/09/14 13:06:58;;;;;;;;;;;;;;;18.25;73.50;99621.13;5033985;28;19933;-63
2021/09/14 13:09:53;;;;;;;;;;;;;;;18.27;73.27;99626.31;5035114;28;19966;-63
2021/09/14 13:12:51;;;;;;;;;;;;;;;18.28;73.31;99625.41;5033871;28;20372;-63
2021/09/14 13:18:45;;;;;;;;;;;;;;;18.30;73.56;99601.75;5035186;28;20292;-63
2021/09/14 13:21:29;;;;;;;;;;;;;;;18.32;73.46;99605.22;5033667;28;20391;-62
2021/09/14 13:24:13;;;;;;;;;;;;;;;18.32;73.56;99615.72;5034956;28;19928;-63
2021/09/14 13:26:59;;;;;;;;;;;;;;;18.32;73.42;99613.97;5034130;28;19971;-62
2021/09/14 13:29:49;;;;;;;;;;;;;;;18.33;73.43;99601.69;5033489;28;20008;-63
2021/09/14 13:32:35;;;;;;;;;;;;;;;18.33;73.72;99599.09;5033569;28;20008;-64
2021/09/14 13:35:19;;;;;;;;;;;;;;;18.34;73.57;99598.19;5034939;28;19928;-64
2021/09/14 13:38:12;;;;;;;;;;;;;;;18.35;73.60;99600.78;5034375;28;20019;-64
2021/09/14 13:41:05;;;;;;;;;;;;;;;18.35;73.83;99594.66;5033533;28;20055;-64
2021/09/14 13:43:59;;;;;;;;;;;;;;;18.34;73.76;99591.19;5033261;28;19928;-64
2021/09/14 13:46:52;;;;;;;;;;;;;;;18.34;73.63;99583.31;5034300;28;20019;-64
2021/09/14 13:49:39;;;;;;;;;;;;;;;18.35;73.76;99581.56;5033324;28;19971;-64
2021/09/14 13:52:23;;;;;;;;;;;;;;;18.34;73.84;99580.69;5033596;28;20019;-64
2021/09/14 13:55:10;;;;;;;;;;;;;;;18.35;73.98;99577.19;5033429;28;19928;-64
2021/09/14 13:58:05;;;;;;;;;;;;;;;18.36;73.97;99567.53;5034470;28;20399;-63
2021/09/14 14:00:58;;;;;;;;;;;;;;;18.36;73.82;99570.16;5034563;28;19928;-64
2021/09/14 14:03:53;;;;;;;;;;;;;;;18.36;74.00;99563.16;5033391;28;19928;-64
2021/09/14 14:06:45;;;;;;;;;;;;;;;18.36;73.90;99552.69;5033644;28;19928;-63
2021/09/14 14:09:32;;;;;;;;;;;;;;;18.37;74.07;99558.78;5032508;28;19971;-64
2021/09/14 14:12:19;;;;;;;;;;;;;;;18.37;74.19;99570.09;5032558;28;20051;-63
2021/09/14 14:15:06;;;;;;;;;;;;;;;18.39;74.15;99567.47;5032916;28;20055;-62
2021/09/14 14:17:53;;;;;;;;;;;;;;;18.40;74.02;99566.56;5033451;28;19944;-63
2021/09/14 14:20:39;;;;;;;;;;;;;;;18.40;74.16;99566.56;5033282;28;19928;-63
2021/09/14 14:23:29;;;;;;;;;;;;;;;18.42;74.07;99577.91;5032539;28;19955;-62
2021/09/14 14:26:21;;;;;;;;;;;;;;;18.43;74.17;99577.00;5033145;28;20020;-63
2021/09/14 14:29:11;;;;;;;;;;;;;;;18.45;74.26;99576.94;5032868;28;19948;-63
2021/09/14 14:32:01;;;;;;;;;;;;;;;18.44;74.19;99573.47;5033733;28;20010;-63
2021/09/14 14:34:50;;;;;;;;;;;;;;;18.44;74.34;99576.09;5032656;28;19974;-63
2021/09/14 14:37:43;;;;;;;;;;;;;;;18.44;74.42;99567.34;5032528;28;20354;-62
2021/09/14 14:40:32;;;;;;;;;;;;;;;18.46;74.47;99570.81;5033150;28;19929;-63
2021/09/14 14:43:16;;;;;;;;;;;;;;;18.47;74.42;99569.91;5033544;28;19928;-63
2021/09/14 14:46:00;;;;;;;;;;;;;;;18.48;74.32;99567.25;5032814;28;20292;-62
2021/09/14 14:48:47;;;;;;;;;;;;;;;18.48;74.67;99564.63;5033593;28;19928;-63
2021/09/14 14:51:40;;;;;;;;;;;;;;;18.50;74.24;99575.09;5033242;28;20502;-63
2021/09/14 14:54:33;;;;;;;;;;;;;;;18.50;74.59;99577.72;5033153;28;19928;-63
2021/09/14 14:57:17;;;;;;;;;;;;;;;18.50;74.56;99575.94;5033501;28;19928;-63
2021/09/14 15:00:06;;;;;;;;;;;;;;;18.51;74.38;99582.06;5032293;28;19983;-63
2021/09/14 15:02:56;;;;;;;;;;;;;;;18.51;74.62;99574.19;5032054;28;19927;-64
2021/09/14 15:05:51;;;;;;;;;;;;;;;18.51;74.36;99582.06;5032819;28;20452;-63
2021/09/14 15:08:35;;;;;;;;;;;;;;;18.51;74.49;99574.19;5032849;28;19967;-63
2021/09/14 15:11:19;;;;;;;;;;;;;;;18.52;74.48;99584.63;5033190;28;19928;-64
2021/09/14 15:14:08;;;;;;;;;;;;;;;18.53;74.45;99580.28;5032852;28;19971;-64
2021/09/14 15:16:58;;;;;;;;;;;;;;;18.53;74.63;99580.28;5032187;28;20036;-64
2021/09/14 15:19:50;;;;;;;;;;;;;;;18.53;74.62;99575.03;5032788;28;19928;-64
2021/09/14 15:22:40;;;;;;;;;;;;;;;18.53;74.50;99582.91;5032668;28;19928;-64
2021/09/14 15:25:29;;;;;;;;;;;;;;;18.54;74.64;99582.84;5048911;28;19928;-64
2021/09/14 15:28:23;;;;;;;;;;;;;;;18.55;74.79;99586.31;5035711;28;20403;-64
2021/09/14 15:31:07;;;;;;;;;;;;;;;18.55;74.55;99584.56;5035749;28;19927;-64
2021/09/14 15:33:57;;;;;;;;;;;;;;;18.55;74.61;99575.81;5036449;28;20047;-64
2021/09/14 15:36:41;;;;;;;;;;;;;;;18.56;74.79;99572.31;5035697;28;19928;-64
2021/09/14 15:39:28;;;;;;;;;;;;;;;18.56;74.86;99575.81;5035565;28;19927;-64
2021/09/14 15:42:23;;;;;;;;;;;;;;;18.58;74.97;99573.13;5035777;28;19991;-64
2021/09/14 15:45:15;;;;;;;;;;;;;;;18.58;74.88;99567.03;5037080;28;19927;-64